Winter, Wisconsin
Current Conditions -  °F | °C
As of 11:55 PM on Wednesday 22 Oct 2014 (Local Time) from KRCX Reporting Station
Overcast Overcast  
Wind Chill: 47°   Ceiling: 3000
Heat Index: 49°   Visibility: 10mi
Dew Point: 40°   Wind: 6mph
Humidity: 72%   Direction: 200°SSW
Pressure: 30.13"   Gusts: NA
Location:  45.82°N, 91.01°W
Report Text: KRCX 230455Z AUTO 20005KT 10SM OVC030 10/05 A3013 RMK AO2 P0005 T00950047
Loading
Personal Weather Stations






























Interactive Weather Map
Tropical Storm Tracking
New forecast layout! Learn more

10-Day Weather Forecast

Advertisements
Track Severe Weather on mobile